Time;durP1;ratioP1;P1;durP2;ratioP2;P2;SDS_P1;SDS_P2;PMS_P1;PMS_P2;Temp;Humidity;BMP_temperature;BMP_pressure;BME280_temperature;BME280_humidity;BME280_pressure;Samples;Min_cycle;Max_cycle;Signal;HPM_P1;HPM_P2
2022/06/16 00:02:04;;;;;;;6.30;5.53;;;19.50;67.20;;;;;;4972537;28;20411;-65
2022/06/16 00:04:30;;;;;;;7.83;5.93;;;19.50;67.60;;;;;;4972291;28;20225;-65
2022/06/16 00:06:56;;;;;;;5.97;5.43;;;19.50;68.20;;;;;;4972453;28;20428;-66
2022/06/16 00:09:26;;;;;;;6.63;6.10;;;19.40;67.20;;;;;;4974038;28;20419;-66
2022/06/16 00:11:52;;;;;;;6.87;6.13;;;19.40;68.00;;;;;;4975921;28;20165;-65
2022/06/16 00:14:18;;;;;;;6.03;5.50;;;19.50;67.80;;;;;;4976273;28;20482;-65
2022/06/16 00:16:45;;;;;;;6.37;5.77;;;19.50;67.90;;;;;;4975640;28;20932;-65
2022/06/16 00:19:11;;;;;;;7.30;6.60;;;19.50;66.60;;;;;;4975360;28;20434;-66
2022/06/16 00:21:36;;;;;;;5.93;5.43;;;19.50;68.40;;;;;;4975948;28;20494;-65
2022/06/16 00:24:02;;;;;;;7.23;6.53;;;19.40;67.00;;;;;;4975489;28;20211;-65
2022/06/16 00:26:28;;;;;;;8.27;7.50;;;19.30;68.60;;;;;;4975549;28;20175;-65
2022/06/16 00:28:54;;;;;;;8.43;6.80;;;19.30;69.00;;;;;;4975373;28;20435;-66
2022/06/16 00:31:22;;;;;;;8.03;5.77;;;19.20;69.00;;;;;;4975361;28;20440;-65
2022/06/16 00:33:49;;;;;;;7.07;6.47;;;19.20;70.30;;;;;;4975478;28;20451;-65
2022/06/16 00:36:16;;;;;;;6.80;6.30;;;19.20;73.00;;;;;;4975474;28;20428;-65
2022/06/16 00:38:42;;;;;;;6.50;5.90;;;19.20;68.80;;;;;;4975019;28;20455;-65
2022/06/16 00:41:08;;;;;;;6.90;6.40;;;19.20;68.80;;;;;;4975335;28;20438;-65
2022/06/16 00:43:34;;;;;;;6.07;5.57;;;19.20;68.30;;;;;;4975153;28;20622;-65
2022/06/16 00:46:03;;;;;;;5.27;4.80;;;19.30;68.20;;;;;;4974811;28;20424;-65
2022/06/16 00:48:44;;;;;;;5.43;5.00;;;19.30;67.50;;;;;;4975118;28;20419;-66
2022/06/16 00:51:35;;;;;;;5.40;4.90;;;19.30;66.90;;;;;;4975172;28;20424;-66
2022/06/16 00:54:36;;;;;;;6.57;6.00;;;19.30;67.90;;;;;;4974842;28;20536;-65
2022/06/16 00:57:06;;;;;;;5.10;4.70;;;19.20;68.10;;;;;;4964619;28;20537;-65
2022/06/16 00:59:32;;;;;;;4.23;4.00;;;19.30;67.40;;;;;;4974658;28;20427;-67
2022/06/16 01:01:58;;;;;;;5.93;5.43;;;19.20;68.80;;;;;;4974808;28;21216;-65
2022/06/16 01:07:12;;;;;;;7.87;5.40;;;19.10;68.80;;;;;;4974882;28;20469;-65
2022/06/16 01:09:38;;;;;;;6.13;5.57;;;19.20;68.50;;;;;;4974473;28;20454;-66
2022/06/16 01:15:31;;;;;;;6.17;5.67;;;19.20;69.50;;;;;;4974659;28;20799;-66
2022/06/16 01:18:13;;;;;;;6.03;5.30;;;19.10;68.90;;;;;;4974714;28;20514;-65
2022/06/16 01:21:05;;;;;;;5.40;5.00;;;19.10;70.70;;;;;;4974339;28;20977;-65
2022/06/16 01:24:07;;;;;;;6.53;5.70;;;19.00;71.70;;;;;;4974476;28;20932;-65
2022/06/16 01:26:44;;;;;;;5.87;5.30;;;18.90;71.40;;;;;;4974540;28;20415;-66
2022/06/16 01:29:19;;;;;;;6.93;6.33;;;18.90;71.20;;;;;;4974172;28;20415;-65
2022/06/16 01:31:44;;;;;;;7.40;5.77;;;18.90;72.30;;;;;;4974354;28;20415;-65
2022/06/16 01:34:12;;;;;;;5.30;4.90;;;18.90;73.20;;;;;;4974517;28;20879;-65
2022/06/16 01:36:47;;;;;;;5.53;5.13;;;18.90;73.70;;;;;;4974284;28;20187;-65
2022/06/16 01:39:19;;;;;;;6.53;6.03;;;19.00;74.20;;;;;;4974314;28;20909;-66
2022/06/16 01:42:00;;;;;;;7.07;5.00;;;18.90;73.90;;;;;;4974143;28;20423;-65
2022/06/16 01:45:07;;;;;;;5.53;5.10;;;18.90;75.00;;;;;;4974056;28;20467;-66
2022/06/16 01:47:34;;;;;;;5.20;4.70;;;18.80;72.70;;;;;;4944625;28;20920;-66
2022/06/16 01:50:08;;;;;;;5.80;5.40;;;18.80;72.60;;;;;;4973748;28;20427;-65
2022/06/16 01:52:42;;;;;;;8.70;5.10;;;18.80;72.30;;;;;;4973914;28;20797;-66
2022/06/16 01:55:13;;;;;;;5.47;4.97;;;18.80;72.60;;;;;;4974097;28;20933;-65
2022/06/16 01:57:46;;;;;;;5.67;5.17;;;18.70;73.40;;;;;;4973968;28;20419;-65
2022/06/16 02:00:24;;;;;;;5.70;5.17;;;18.70;73.70;;;;;;4973460;28;20420;-65
2022/06/16 02:03:08;;;;;;;5.50;5.00;;;18.60;73.10;;;;;;4973814;28;20465;-65
2022/06/16 02:05:42;;;;;;;5.70;5.20;;;18.70;74.30;;;;;;4973938;28;20415;-63
2022/06/16 02:08:14;;;;;;;7.60;6.80;;;18.70;74.50;;;;;;4973662;28;20734;-63
2022/06/16 02:10:44;;;;;;;6.90;6.30;;;18.80;75.00;;;;;;4973550;28;20427;-63
2022/06/16 02:13:12;;;;;;;6.03;5.43;;;18.80;75.20;;;;;;4973550;28;21040;-63
2022/06/16 02:15:51;;;;;;;5.70;5.30;;;18.80;76.10;;;;;;4973792;28;20442;-63
2022/06/16 02:18:25;;;;;;;7.50;6.03;;;18.90;76.50;;;;;;4973230;28;20901;-64
2022/06/16 02:21:05;;;;;;;5.00;4.70;;;18.80;79.20;;;;;;4973491;28;20434;-64
2022/06/16 02:23:30;;;;;;;6.50;5.90;;;18.90;81.20;;;;;;4973176;28;20992;-63
2022/06/16 02:25:57;;;;;;;7.23;6.50;;;18.90;80.80;;;;;;4973329;28;20450;-63
2022/06/16 02:28:24;;;;;;;12.40;8.13;;;18.90;80.80;;;;;;4973050;28;20238;-64
2022/06/16 02:31:14;;;;;;;14.20;9.57;;;18.80;79.70;;;;;;4972707;28;20438;-63
2022/06/16 02:34:18;;;;;;;7.90;7.23;;;18.70;79.10;;;;;;4973202;28;20443;-63
2022/06/16 02:37:04;;;;;;;7.80;7.00;;;18.80;79.00;;;;;;4973235;28;20422;-63
2022/06/16 02:40:07;;;;;;;6.43;5.93;;;18.80;79.70;;;;;;4972872;28;20411;-63
2022/06/16 02:42:50;;;;;;;7.13;6.57;;;18.70;79.60;;;;;;4973079;28;20499;-63
2022/06/16 02:45:41;;;;;;;8.43;7.57;;;18.70;80.10;;;;;;4972997;28;20416;-63
2022/06/16 02:48:20;;;;;;;9.17;8.40;;;18.70;82.10;;;;;;4972970;28;20419;-64
2022/06/16 02:51:05;;;;;;;8.53;7.67;;;18.50;81.90;;;;;;4973039;28;20882;-63
2022/06/16 02:56:49;;;;;;;6.80;6.30;;;18.50;85.50;;;;;;4972953;28;20419;-63
2022/06/16 02:59:19;;;;;;;8.00;6.67;;;18.50;86.90;;;;;;4972819;28;20427;-63
2022/06/16 03:01:45;;;;;;;6.50;6.00;;;18.40;84.60;;;;;;4972864;28;20422;-63
2022/06/16 03:04:15;;;;;;;8.27;6.13;;;18.40;84.40;;;;;;4972757;28;20459;-63
2022/06/16 03:06:42;;;;;;;8.53;7.70;;;18.40;84.80;;;;;;4972814;28;20415;-63
2022/06/16 03:09:08;;;;;;;8.07;7.30;;;18.50;86.50;;;;;;4972443;28;20427;-64
2022/06/16 03:11:35;;;;;;;10.07;9.13;;;18.50;88.30;;;;;;4972893;28;20416;-64
2022/06/16 03:14:01;;;;;;;11.97;10.77;;;18.50;90.10;;;;;;4972764;28;20774;-63
2022/06/16 03:16:27;;;;;;;10.20;9.30;;;18.40;90.20;;;;;;4972798;28;20877;-63
2022/06/16 03:18:53;;;;;;;10.03;9.13;;;18.40;90.70;;;;;;4972495;28;20451;-63
2022/06/16 03:21:19;;;;;;;9.30;8.60;;;18.30;90.80;;;;;;4972651;28;20555;-63
2022/06/16 03:23:44;;;;;;;9.27;8.43;;;18.40;90.60;;;;;;4972466;28;20590;-64
2022/06/16 03:26:10;;;;;;;7.37;6.77;;;18.40;90.80;;;;;;4972738;28;20722;-63
2022/06/16 03:28:36;;;;;;;7.40;6.60;;;18.40;91.50;;;;;;4972424;28;20260;-63
2022/06/16 03:31:02;;;;;;;7.23;6.63;;;18.30;91.10;;;;;;4972702;28;20552;-63
2022/06/16 03:33:27;;;;;;;7.53;6.90;;;18.30;91.30;;;;;;4972526;28;20444;-64
2022/06/16 03:35:54;;;;;;;7.53;6.83;;;18.30;92.40;;;;;;4972614;28;20188;-63
2022/06/16 03:40:46;;;;;;;8.23;7.43;;;18.30;95.30;;;;;;4972831;28;20570;-63
2022/06/16 03:43:11;;;;;;;7.87;7.17;;;18.10;94.50;;;;;;4974139;28;20467;-65
2022/06/16 03:45:37;;;;;;;8.07;6.37;;;18.20;95.50;;;;;;4976295;28;20598;-63
2022/06/16 03:48:03;;;;;;;7.70;7.00;;;18.30;95.00;;;;;;4976144;28;20201;-63
2022/06/16 03:50:29;;;;;;;8.10;7.30;;;18.50;94.60;;;;;;4975881;28;20180;-64
2022/06/16 03:52:55;;;;;;;6.40;5.90;;;18.50;95.10;;;;;;4975887;28;20461;-63
2022/06/16 03:55:21;;;;;;;6.93;6.23;;;18.60;94.30;;;;;;4976609;28;20207;-65
2022/06/16 03:57:47;;;;;;;7.93;7.33;;;18.70;94.30;;;;;;4975983;28;20215;-65
2022/06/16 04:00:14;;;;;;;7.20;6.50;;;18.90;95.20;;;;;;4975654;28;20982;-65
2022/06/16 04:02:39;;;;;;;7.83;7.23;;;19.10;95.90;;;;;;4975733;28;20580;-65
2022/06/16 04:05:07;;;;;;;8.20;7.50;;;19.30;94.60;;;;;;4975797;28;20415;-65
2022/06/16 04:07:34;;;;;;;7.03;6.47;;;19.40;95.40;;;;;;4975833;28;20264;-65
2022/06/16 04:09:59;;;;;;;6.90;6.30;;;19.50;95.00;;;;;;4975546;28;20942;-65
2022/06/16 04:12:25;;;;;;;7.37;6.67;;;19.60;94.70;;;;;;4975706;28;20506;-65
2022/06/16 04:14:50;;;;;;;7.33;6.63;;;19.70;94.80;;;;;;4975628;28;20299;-65
2022/06/16 04:17:16;;;;;;;6.90;6.30;;;19.90;95.70;;;;;;4975644;28;20212;-65
2022/06/16 04:20:11;;;;;;;5.63;5.33;;;20.00;95.00;;;;;;4975263;28;20188;-65
2022/06/16 04:22:27;;;;;;;7.77;6.00;;;20.10;92.60;;;;;;4975445;28;20179;-65
2022/06/16 04:24:53;;;;;;;5.90;5.40;;;20.00;90.80;;;;;;4975433;28;20471;-65
2022/06/16 04:27:18;;;;;;;5.70;5.30;;;20.10;90.90;;;;;;4974183;28;20191;-65
2022/06/16 04:29:44;;;;;;;7.43;6.90;;;20.10;90.00;;;;;;4975121;28;20203;-65
2022/06/16 04:32:10;;;;;;;6.97;6.37;;;20.10;90.10;;;;;;4975349;28;20657;-65
2022/06/16 04:34:37;;;;;;;6.77;6.17;;;20.20;91.00;;;;;;4975251;28;20196;-66
2022/06/16 04:37:03;;;;;;;6.77;6.23;;;20.30;90.60;;;;;;4975299;28;20180;-65
2022/06/16 04:39:28;;;;;;;6.13;5.63;;;20.40;91.40;;;;;;4974998;28;20578;-66
2022/06/16 04:41:54;;;;;;;5.93;5.43;;;20.50;90.50;;;;;;4975190;28;20180;-66
2022/06/16 04:44:19;;;;;;;7.00;6.50;;;20.40;91.30;;;;;;4974985;28;20278;-66
2022/06/16 04:46:45;;;;;;;5.77;5.37;;;20.40;91.70;;;;;;4975073;28;20199;-66
2022/06/16 04:49:11;;;;;;;6.50;5.93;;;20.40;92.80;;;;;;4974809;28;20247;-65
2022/06/16 04:51:37;;;;;;;7.30;5.53;;;20.50;93.00;;;;;;4975139;28;20176;-65
2022/06/16 04:54:03;;;;;;;7.93;5.83;;;20.50;93.50;;;;;;4974192;28;20460;-65
2022/06/16 04:56:29;;;;;;;6.67;6.00;;;20.50;94.00;;;;;;4974878;28;20506;-65
2022/06/16 04:58:54;;;;;;;6.23;5.73;;;20.60;95.80;;;;;;4974612;28;20263;-65
2022/06/16 05:01:20;;;;;;;5.47;5.17;;;20.50;97.00;;;;;;4974756;28;20184;-65
2022/06/16 05:03:46;;;;;;;6.40;5.90;;;20.50;97.60;;;;;;4974704;28;20212;-66
2022/06/16 05:06:12;;;;;;;5.67;5.27;;;20.20;98.90;;;;;;4974829;28;20635;-66
2022/06/16 05:08:37;;;;;;;6.80;6.17;;;20.20;98.70;;;;;;4974403;28;20247;-65
2022/06/16 05:11:02;;;;;;;6.10;5.70;;;20.30;98.60;;;;;;4974712;28;20199;-66
2022/06/16 05:13:28;;;;;;;6.10;5.70;;;20.50;98.30;;;;;;4974647;28;20200;-65
2022/06/16 05:15:54;;;;;;;7.13;6.40;;;20.50;99.80;;;;;;4971592;28;20172;-66
2022/06/16 05:18:20;;;;;;;5.43;5.03;;;20.70;99.90;;;;;;4966685;28;20595;-66
2022/06/16 05:20:45;;;;;;;6.50;5.90;;;20.90;98.40;;;;;;4959514;28;20495;-66
2022/06/16 05:23:12;;;;;;;5.40;5.00;;;21.20;97.10;;;;;;4955111;28;20204;-66
2022/06/16 05:25:39;;;;;;;5.97;5.57;;;21.40;98.10;;;;;;4955108;28;20563;-66
2022/06/16 05:28:05;;;;;;;5.30;5.00;;;21.70;96.70;;;;;;4955043;28;20511;-66
2022/06/16 05:30:31;;;;;;;5.90;5.50;;;22.00;94.80;;;;;;4954783;28;20417;-66
2022/06/16 05:32:56;;;;;;;6.33;5.50;;;22.20;94.30;;;;;;4955211;28;21032;-65
2022/06/16 05:35:23;;;;;;;7.90;5.60;;;22.40;93.10;;;;;;4954942;29;20634;-66
2022/06/16 05:37:48;;;;;;;5.70;5.20;;;22.50;91.90;;;;;;4954989;28;20181;-66
2022/06/16 05:40:14;;;;;;;5.50;5.10;;;22.70;90.90;;;;;;4954488;29;20910;-66
2022/06/16 05:42:39;;;;;;;6.07;5.57;;;22.80;90.50;;;;;;4954685;28;20185;-65
2022/06/16 05:45:06;;;;;;;4.80;4.50;;;22.80;90.10;;;;;;4954796;29;20651;-66
2022/06/16 05:47:31;;;;;;;5.40;5.03;;;22.90;87.50;;;;;;4954706;28;20169;-65
2022/06/16 05:49:58;;;;;;;4.93;4.53;;;23.10;86.50;;;;;;4954540;28;20795;-66
2022/06/16 05:52:24;;;;;;;5.90;5.30;;;23.00;84.20;;;;;;4954709;29;20175;-66
2022/06/16 05:54:50;;;;;;;5.47;5.07;;;23.10;88.00;;;;;;4954320;28;20543;-65
2022/06/16 05:57:15;;;;;;;4.90;4.60;;;23.30;84.00;;;;;;4954576;28;20175;-65
2022/06/16 05:59:41;;;;;;;5.30;4.90;;;23.40;83.10;;;;;;4954175;29;20922;-65
2022/06/16 06:02:15;;;;;;;4.60;4.30;;;23.30;83.80;;;;;;4954452;29;20635;-65
2022/06/16 06:04:41;;;;;;;5.40;4.90;;;23.40;86.30;;;;;;4954344;28;20213;-66
2022/06/16 06:07:06;;;;;;;5.83;5.20;;;23.50;85.30;;;;;;4953543;28;20835;-65
2022/06/16 06:17:38;;;;;;;5.57;5.17;;;24.00;78.20;;;;;;4954167;29;20480;-65
2022/06/16 06:20:04;;;;;;;4.87;4.57;;;24.20;74.80;;;;;;4953834;28;20428;-66
2022/06/16 06:22:29;;;;;;;5.03;4.73;;;24.40;75.80;;;;;;4954055;28;20187;-66
2022/06/16 06:24:58;;;;;;;5.40;5.00;;;24.60;80.80;;;;;;4953793;28;20472;-65
2022/06/16 06:27:41;;;;;;;5.67;5.07;;;24.80;81.00;;;;;;4954077;28;20264;-65
2022/06/16 06:30:18;;;;;;;4.70;4.40;;;25.00;79.60;;;;;;4953804;28;20511;-66
2022/06/16 06:32:44;;;;;;;5.07;4.67;;;25.10;75.60;;;;;;4953960;28;20420;-66
2022/06/16 06:35:10;;;;;;;5.53;4.90;;;25.20;73.90;;;;;;4953786;28;20436;-66
2022/06/16 06:37:36;;;;;;;6.77;6.17;;;25.50;72.60;;;;;;4953851;28;20176;-66
2022/06/16 06:40:03;;;;;;;5.50;5.10;;;25.70;71.90;;;;;;4953537;29;20479;-66
2022/06/16 06:42:28;;;;;;;6.07;5.50;;;25.90;69.90;;;;;;4953782;28;20169;-66
2022/06/16 06:44:54;;;;;;;4.70;4.40;;;26.10;68.40;;;;;;4953730;28;20519;-66
2022/06/16 06:47:23;;;;;;;5.33;4.83;;;26.20;66.30;;;;;;4953768;29;20176;-66
2022/06/16 06:49:49;;;;;;;5.13;4.80;;;26.50;66.30;;;;;;4953461;28;20256;-66
2022/06/16 06:52:15;;;;;;;5.07;4.57;;;26.70;65.20;;;;;;4953720;29;20581;-66
2022/06/16 06:54:42;;;;;;;9.80;8.80;;;26.90;64.30;;;;;;4953576;28;20213;-66
2022/06/16 06:57:11;;;;;;;5.47;4.83;;;27.30;63.20;;;;;;4953733;29;20953;-66
2022/06/16 06:59:37;;;;;;;5.40;4.93;;;27.60;61.30;;;;;;4953425;28;20495;-66
2022/06/16 07:02:02;;;;;;;5.83;5.33;;;27.70;60.70;;;;;;4953603;29;20512;-66
2022/06/16 07:04:28;;;;;;;4.97;4.57;;;27.80;59.90;;;;;;4953386;28;20757;-66
2022/06/16 07:06:53;;;;;;;6.63;5.83;;;27.70;59.90;;;;;;4953531;29;20177;-66
2022/06/16 07:09:19;;;;;;;5.23;4.43;;;27.60;61.40;;;;;;4953214;29;20658;-66
2022/06/16 07:11:45;;;;;;;6.70;6.10;;;27.40;60.10;;;;;;4953597;29;20543;-66
2022/06/16 07:14:10;;;;;;;5.37;4.67;;;27.50;61.70;;;;;;4953644;28;20189;-66
2022/06/16 07:16:36;;;;;;;5.57;5.17;;;27.70;59.80;;;;;;4953533;29;20185;-66
2022/06/16 07:19:03;;;;;;;5.33;5.00;;;27.70;59.80;;;;;;4956514;28;20176;-66
2022/06/16 07:21:29;;;;;;;5.47;5.07;;;27.70;60.10;;;;;;4957399;28;20442;-66
2022/06/16 07:23:54;;;;;;;5.10;4.80;;;27.80;60.40;;;;;;4957191;28;20460;-66
2022/06/16 07:26:20;;;;;;;8.43;5.70;;;28.30;60.10;;;;;;4957368;29;20423;-66
2022/06/16 07:28:47;;;;;;;5.67;5.23;;;28.70;60.60;;;;;;4957099;29;20263;-66
2022/06/16 07:31:13;;;;;;;5.83;5.33;;;29.20;60.40;;;;;;4962877;28;20232;-68
2022/06/16 07:33:38;;;;;;;4.90;4.50;;;29.40;59.90;;;;;;4960937;28;20463;-68
2022/06/16 07:36:04;;;;;;;5.10;4.80;;;29.50;59.30;;;;;;4967097;28;20428;-68
2022/06/16 07:38:29;;;;;;;5.53;5.10;;;29.50;58.00;;;;;;4976198;28;20204;-68
2022/06/16 07:41:30;;;;;;;5.47;5.10;;;29.50;57.60;;;;;;4976697;28;20672;-68
2022/06/16 07:43:41;;;;;;;5.77;5.37;;;29.50;58.50;;;;;;4975946;28;20725;-68
2022/06/16 07:46:07;;;;;;;6.83;6.23;;;29.40;59.30;;;;;;4966986;28;20462;-69
2022/06/16 07:48:32;;;;;;;6.77;6.20;;;29.10;59.60;;;;;;4987515;28;20548;-68
2022/06/16 07:50:58;;;;;;;6.13;5.63;;;28.80;59.40;;;;;;4995654;28;20225;-69
2022/06/16 07:53:23;;;;;;;6.97;6.47;;;28.80;60.30;;;;;;4995241;28;20626;-68
2022/06/16 07:55:49;;;;;;;6.50;6.03;;;29.00;59.80;;;;;;4995687;28;20163;-68
2022/06/16 07:58:15;;;;;;;6.23;5.83;;;29.20;60.10;;;;;;4995438;28;20176;-69
2022/06/16 08:00:40;;;;;;;5.40;5.10;;;29.40;60.00;;;;;;4995474;28;20175;-68
2022/06/16 08:03:05;;;;;;;5.80;5.40;;;29.50;59.30;;;;;;4994917;28;20211;-69
2022/06/16 08:05:32;;;;;;;6.87;6.17;;;29.60;59.30;;;;;;4995564;28;20649;-68
2022/06/16 08:07:58;;;;;;;6.40;6.00;;;29.80;59.30;;;;;;4995277;28;20183;-68
2022/06/16 08:10:26;;;;;;;5.30;5.00;;;29.90;58.60;;;;;;4995203;28;20423;-68
2022/06/16 08:12:52;;;;;;;9.87;9.07;;;30.30;58.90;;;;;;4995362;28;20210;-69
2022/06/16 08:15:17;;;;;;;6.27;5.83;;;30.40;58.30;;;;;;4995319;28;20421;-68
2022/06/16 08:17:46;;;;;;;6.87;6.30;;;30.50;58.70;;;;;;4994113;28;20540;-68
2022/06/16 08:20:13;;;;;;;5.93;5.53;;;30.40;58.20;;;;;;4995238;28;20597;-68
2022/06/16 08:22:38;;;;;;;5.97;5.57;;;30.60;58.40;;;;;;4995042;28;20502;-69
2022/06/16 08:25:06;;;;;;;6.20;5.80;;;30.60;58.30;;;;;;4995095;28;20561;-68
2022/06/16 08:27:35;;;;;;;5.60;5.17;;;30.90;57.70;;;;;;4994997;28;20176;-68
2022/06/16 08:30:03;;;;;;;6.13;5.73;;;30.90;57.20;;;;;;4993658;28;20419;-68
2022/06/16 08:32:29;;;;;;;6.87;6.27;;;30.80;56.80;;;;;;4994914;28;20415;-69
2022/06/16 08:34:54;;;;;;;6.60;6.10;;;31.00;56.70;;;;;;4994843;28;20453;-68
2022/06/16 08:37:21;;;;;;;6.70;6.10;;;31.20;57.20;;;;;;4994842;28;20254;-69
2022/06/16 08:39:47;;;;;;;7.20;6.70;;;31.00;57.20;;;;;;4994673;28;20184;-69
2022/06/16 08:42:39;;;;;;;5.70;5.40;;;31.00;57.80;;;;;;4994623;28;20430;-69
2022/06/16 08:45:26;;;;;;;7.33;6.60;;;30.90;57.40;;;;;;4994760;28;20832;-68
2022/06/16 08:48:11;;;;;;;6.63;5.90;;;30.60;56.60;;;;;;4994816;28;20421;-69
2022/06/16 08:50:59;;;;;;;6.33;5.80;;;30.40;57.10;;;;;;4994538;28;20501;-69
2022/06/16 08:53:51;;;;;;;5.63;5.23;;;30.40;56.50;;;;;;4994431;28;21103;-68
2022/06/16 08:56:35;;;;;;;6.53;5.90;;;30.80;55.10;;;;;;4994584;28;20485;-68
2022/06/16 08:59:13;;;;;;;5.90;5.30;;;30.90;54.50;;;;;;4994197;28;20452;-68
2022/06/16 09:01:55;;;;;;;7.03;5.17;;;30.60;53.80;;;;;;4994480;28;20419;-69
2022/06/16 09:04:31;;;;;;;5.03;4.60;;;30.60;54.70;;;;;;4994320;28;20545;-69
2022/06/16 09:07:22;;;;;;;5.33;5.03;;;30.50;54.20;;;;;;4994326;28;20450;-69
2022/06/16 09:10:16;;;;;;;5.67;5.17;;;30.10;55.30;;;;;;4965957;28;20434;-69
2022/06/16 09:13:03;;;;;;;6.97;6.20;;;30.60;54.30;;;;;;4994217;28;20442;-68
2022/06/16 09:16:06;;;;;;;6.10;5.70;;;30.70;53.80;;;;;;4994092;28;20414;-68
2022/06/16 09:18:47;;;;;;;5.23;4.83;;;31.00;53.20;;;;;;4960784;28;20422;-69
2022/06/16 09:21:16;;;;;;;4.80;4.50;;;31.00;53.00;;;;;;4994095;28;20788;-69
2022/06/16 09:24:15;;;;;;;5.57;5.20;;;31.20;53.20;;;;;;4992578;28;20462;-69
2022/06/16 09:26:55;;;;;;;4.70;4.30;;;31.40;52.20;;;;;;4994107;28;20498;-69
2022/06/16 09:29:47;;;;;;;5.23;4.83;;;31.80;51.60;;;;;;4993797;28;20411;-68
2022/06/16 09:32:31;;;;;;;5.77;5.27;;;31.60;51.20;;;;;;4994398;28;20422;-69
2022/06/16 09:35:16;;;;;;;6.00;5.40;;;31.10;51.80;;;;;;4993729;28;20436;-69
2022/06/16 09:38:25;;;;;;;5.87;5.37;;;31.60;52.50;;;;;;4993814;28;20481;-69
2022/06/16 09:41:00;;;;;;;5.23;4.30;;;31.70;50.90;;;;;;4933291;29;20512;-69
2022/06/16 09:43:35;;;;;;;5.67;5.10;;;31.80;51.50;;;;;;4933341;29;20467;-69
2022/06/16 09:46:06;;;;;;;7.53;4.90;;;31.60;51.20;;;;;;4969049;28;20907;-69
2022/06/16 09:48:47;;;;;;;5.47;5.07;;;32.50;51.20;;;;;;4993423;28;20435;-69
2022/06/16 09:51:35;;;;;;;5.00;4.70;;;33.20;50.10;;;;;;4993633;28;20419;-69
2022/06/16 09:54:05;;;;;;;6.10;5.60;;;33.50;49.40;;;;;;4994175;28;20838;-70
2022/06/16 09:56:38;;;;;;;4.90;4.43;;;34.00;48.10;;;;;;4993496;28;20426;-70
2022/06/16 09:59:19;;;;;;;5.73;5.23;;;35.00;47.70;;;;;;4993281;28;20510;-69
2022/06/16 10:02:19;;;;;;;5.57;5.17;;;35.10;46.90;;;;;;4993424;28;20979;-69
2022/06/16 10:04:48;;;;;;;6.00;5.60;;;35.60;46.50;;;;;;4992647;28;20543;-69
2022/06/16 10:07:27;;;;;;;5.90;5.50;;;36.10;45.30;;;;;;4993187;28;20422;-69
2022/06/16 10:10:24;;;;;;;5.00;4.67;;;36.20;44.80;;;;;;4993196;28;20426;-70
2022/06/16 10:13:02;;;;;;;5.30;4.90;;;36.00;44.80;;;;;;4960083;28;20519;-69
2022/06/16 10:15:42;;;;;;;5.07;4.67;;;35.20;46.00;;;;;;4993114;28;20478;-69
2022/06/16 10:18:10;;;;;;;5.30;4.90;;;35.40;46.30;;;;;;4993091;28;20429;-68
2022/06/16 10:20:37;;;;;;;5.37;5.07;;;35.80;45.40;;;;;;4992908;28;20509;-69
2022/06/16 10:23:18;;;;;;;6.00;5.50;;;36.10;44.50;;;;;;4992789;28;20536;-69
2022/06/16 10:25:55;;;;;;;6.33;5.90;;;36.50;44.20;;;;;;4992971;28;20831;-69
2022/06/16 10:28:34;;;;;;;5.27;4.80;;;36.40;43.70;;;;;;4992836;28;20422;-70
2022/06/16 10:31:03;;;;;;;5.30;4.93;;;37.20;44.00;;;;;;4992830;28;20456;-70
2022/06/16 10:33:51;;;;;;;5.13;4.80;;;37.70;43.60;;;;;;4992772;28;20457;-69
2022/06/16 10:36:20;;;;;;;5.80;5.37;;;38.80;41.80;;;;;;4992798;28;20501;-69
2022/06/16 10:39:05;;;;;;;5.17;4.87;;;39.00;41.10;;;;;;4992497;28;20431;-69
2022/06/16 10:41:53;;;;;;;6.03;5.50;;;39.00;41.20;;;;;;4992771;28;20460;-70
2022/06/16 10:44:23;;;;;;;5.03;4.60;;;39.00;40.80;;;;;;4992126;28;20474;-70
2022/06/16 10:47:02;;;;;;;4.73;4.43;;;39.40;40.70;;;;;;4992599;28;20506;-69
2022/06/16 10:49:33;;;;;;;5.50;5.17;;;39.30;41.20;;;;;;4992379;28;20877;-70
2022/06/16 10:52:06;;;;;;;5.77;5.03;;;40.00;40.20;;;;;;4992157;28;20542;-68
2022/06/16 10:54:35;;;;;;;6.27;5.73;;;39.80;39.60;;;;;;4992371;28;20538;-69
2022/06/16 10:57:15;;;;;;;5.47;5.07;;;39.50;39.10;;;;;;4992600;28;20794;-69
2022/06/16 10:59:47;;;;;;;7.70;5.23;;;39.70;40.00;;;;;;4992276;28;20418;-69
2022/06/16 11:02:22;;;;;;;7.40;5.43;;;40.70;39.20;;;;;;4992477;28;20519;-69
2022/06/16 11:04:57;;;;;;;5.47;4.97;;;39.90;38.60;;;;;;4992405;28;20477;-69
2022/06/16 11:07:23;;;;;;;4.73;4.43;;;39.90;38.60;;;;;;4992360;28;20410;-69
2022/06/16 11:09:51;;;;;;;5.40;5.00;;;39.90;39.00;;;;;;4992149;28;20774;-69
2022/06/16 11:12:21;;;;;;;5.60;5.20;;;41.20;38.50;;;;;;4992348;28;20431;-69
2022/06/16 11:14:59;;;;;;;5.73;5.27;;;41.50;37.50;;;;;;4992274;28;20967;-69
2022/06/16 11:17:31;;;;;;;4.90;4.60;;;41.00;37.60;;;;;;4992284;28;20954;-69
2022/06/16 11:20:04;;;;;;;5.37;4.87;;;40.80;37.90;;;;;;4991956;28;20462;-69
2022/06/16 11:22:40;;;;;;;4.73;4.33;;;41.90;37.50;;;;;;4992453;28;20415;-69
2022/06/16 11:25:17;;;;;;;5.30;5.00;;;42.10;36.00;;;;;;4992488;28;20469;-69
2022/06/16 11:27:50;;;;;;;5.97;5.40;;;41.90;35.90;;;;;;4992349;28;20529;-69
2022/06/16 11:30:37;;;;;;;5.43;5.10;;;40.90;36.40;;;;;;4991809;28;20429;-69
2022/06/16 11:33:05;;;;;;;5.60;5.20;;;41.90;36.30;;;;;;4992225;28;20855;-70
2022/06/16 11:35:51;;;;;;;5.67;4.83;;;42.20;35.50;;;;;;4992296;28;20419;-69
2022/06/16 11:38:43;;;;;;;5.23;4.93;;;41.90;35.30;;;;;;4991981;28;20423;-69
2022/06/16 11:41:13;;;;;;;5.03;4.73;;;42.80;35.30;;;;;;4989058;28;20426;-69
2022/06/16 11:44:12;;;;;;;5.20;4.90;;;42.90;35.00;;;;;;4992431;28;20462;-69
2022/06/16 11:47:08;;;;;;;5.63;5.20;;;42.60;34.30;;;;;;4992119;28;20509;-69
2022/06/16 11:49:56;;;;;;;5.60;5.20;;;42.20;34.20;;;;;;4991885;28;20414;-69
2022/06/16 11:52:29;;;;;;;7.90;5.30;;;42.10;34.30;;;;;;4992227;28;20490;-69
2022/06/16 11:55:02;;;;;;;5.27;4.77;;;41.00;34.80;;;;;;4992094;28;20798;-69
2022/06/16 11:57:42;;;;;;;6.23;5.73;;;41.10;35.50;;;;;;4991898;28;20414;-69
2022/06/16 12:00:19;;;;;;;5.73;5.10;;;41.20;35.40;;;;;;4991735;28;20461;-69
2022/06/16 12:02:59;;;;;;;4.80;4.50;;;41.20;34.90;;;;;;4992179;28;20868;-69
2022/06/16 12:06:08;;;;;;;5.13;4.73;;;41.50;35.20;;;;;;4995495;28;20421;-69
2022/06/16 12:08:58;;;;;;;5.47;5.07;;;42.80;33.90;;;;;;4995179;28;20414;-70
2022/06/16 12:11:24;;;;;;;4.83;4.53;;;43.30;34.00;;;;;;4995554;28;20457;-69
2022/06/16 12:13:52;;;;;;;6.40;5.80;;;42.80;33.30;;;;;;4995312;28;20430;-69
2022/06/16 12:16:36;;;;;;;5.87;5.40;;;42.70;33.20;;;;;;4995187;28;20171;-69
2022/06/16 12:19:26;;;;;;;5.13;4.73;;;43.40;33.40;;;;;;4995240;28;20763;-69
2022/06/16 12:22:04;;;;;;;6.27;4.80;;;44.60;32.50;;;;;;4995276;28;20543;-69
2022/06/16 12:25:04;;;;;;;5.63;5.00;;;45.10;31.40;;;;;;4995011;28;20453;-70
2022/06/16 12:27:40;;;;;;;5.33;4.93;;;45.90;31.10;;;;;;4995275;28;20897;-70
2022/06/16 12:30:18;;;;;;;5.13;4.83;;;44.70;31.00;;;;;;4994895;28;20783;-69
2022/06/16 12:33:10;;;;;;;5.83;5.30;;;44.70;31.20;;;;;;4994995;28;20465;-69
2022/06/16 12:35:45;;;;;;;7.43;5.17;;;42.30;31.40;;;;;;4995070;28;20418;-69
2022/06/16 12:38:38;;;;;;;5.60;5.10;;;42.70;31.60;;;;;;4994865;28;20410;-69
2022/06/16 12:41:08;;;;;;;4.53;4.23;;;43.00;30.90;;;;;;4994860;28;20411;-69
2022/06/16 12:43:39;;;;;;;5.03;4.70;;;42.30;31.10;;;;;;4994857;28;20458;-69
2022/06/16 12:46:10;;;;;;;6.20;5.03;;;42.10;30.70;;;;;;4994917;28;20415;-69
2022/06/16 12:48:49;;;;;;;4.90;4.50;;;42.40;30.90;;;;;;4994547;28;20419;-70
2022/06/16 12:51:21;;;;;;;5.00;4.60;;;43.60;30.70;;;;;;4994776;28;20411;-69
2022/06/16 12:54:01;;;;;;;4.83;4.53;;;43.50;30.60;;;;;;4994396;28;20470;-69
2022/06/16 12:56:38;;;;;;;5.40;4.40;;;44.30;30.10;;;;;;4994673;28;20798;-69
2022/06/16 12:59:13;;;;;;;5.60;5.20;;;44.00;30.00;;;;;;4994444;28;20418;-69
2022/06/16 13:01:39;;;;;;;4.97;4.53;;;44.50;29.60;;;;;;4994679;28;20461;-70
2022/06/16 13:04:14;;;;;;;4.43;4.13;;;45.10;29.80;;;;;;4994749;28;20681;-69
2022/06/16 13:06:44;;;;;;;6.57;4.10;;;44.80;29.40;;;;;;4994676;28;20419;-70
2022/06/16 13:09:14;;;;;;;4.77;4.47;;;45.00;29.40;;;;;;4994028;28;20418;-69
2022/06/16 13:12:17;;;;;;;4.43;4.13;;;43.90;29.20;;;;;;4994389;28;20434;-69
2022/06/16 13:14:54;;;;;;;4.47;4.17;;;43.70;29.40;;;;;;4984653;28;20457;-69
2022/06/16 13:17:29;;;;;;;4.70;4.40;;;42.90;29.40;;;;;;4994157;28;20484;-70
2022/06/16 13:20:01;;;;;;;4.90;4.33;;;42.90;29.80;;;;;;4993971;28;20418;-68
2022/06/16 13:22:36;;;;;;;4.40;4.10;;;42.50;29.80;;;;;;4994041;28;20451;-69
2022/06/16 13:25:32;;;;;;;4.70;4.40;;;41.50;30.20;;;;;;4993965;28;20449;-69
2022/06/16 13:27:58;;;;;;;4.27;3.93;;;40.70;29.90;;;;;;4976697;28;20928;-69
2022/06/16 13:30:30;;;;;;;6.23;4.40;;;40.70;30.00;;;;;;4993757;28;20646;-69
2022/06/16 13:33:08;;;;;;;4.27;4.07;;;39.60;30.40;;;;;;4993977;28;20449;-68
2022/06/16 13:35:40;;;;;;;5.23;4.70;;;37.60;31.80;;;;;;4993852;28;20502;-69